createdAt,value
2023-05-10T00:00:54.576Z,16.22
2023-05-10T00:01:54.624Z,16.16
2023-05-10T00:02:54.688Z,16.17
2023-05-10T00:03:54.664Z,16.07
2023-05-10T00:04:54.682Z,16.05
2023-05-10T00:05:54.686Z,16.05
2023-05-10T00:06:54.738Z,16.06
2023-05-10T00:07:54.818Z,16.10
2023-05-10T00:08:54.794Z,16.15
2023-05-10T00:09:54.811Z,16.17
2023-05-10T00:10:54.946Z,16.13
2023-05-10T00:11:54.917Z,16.15
2023-05-10T00:12:55.014Z,16.11
2023-05-10T00:13:55.036Z,16.09
2023-05-10T00:14:55.043Z,16.08
2023-05-10T00:15:55.121Z,16.16
2023-05-10T00:16:55.315Z,16.13
2023-05-10T00:17:55.337Z,16.05
2023-05-10T00:18:55.296Z,16.14
2023-05-10T00:19:55.339Z,16.18
2023-05-10T00:20:55.360Z,16.24
2023-05-10T00:21:55.362Z,16.25
2023-05-10T00:22:55.428Z,16.25
2023-05-10T00:23:55.459Z,16.20
2023-05-10T00:24:55.511Z,16.25
2023-05-10T00:25:55.506Z,16.21
2023-05-10T00:26:55.562Z,16.27
2023-05-10T00:27:55.629Z,16.38
2023-05-10T00:28:55.612Z,16.37
2023-05-10T00:29:55.665Z,16.35
2023-05-10T00:30:55.627Z,16.39
2023-05-10T00:31:55.662Z,16.46
2023-05-10T00:32:55.639Z,16.49
2023-05-10T00:33:55.612Z,16.46
2023-05-10T00:34:55.646Z,16.44
2023-05-10T00:35:55.604Z,16.54
2023-05-10T00:36:55.664Z,16.44
2023-05-10T00:37:55.666Z,16.31
2023-05-10T00:38:55.645Z,16.42
2023-05-10T00:39:55.686Z,16.41
2023-05-10T00:40:55.695Z,16.53
2023-05-10T00:41:55.744Z,16.65
2023-05-10T00:42:55.882Z,16.64
2023-05-10T00:43:55.909Z,16.49
2023-05-10T00:44:55.888Z,16.49
2023-05-10T00:45:55.978Z,16.62
2023-05-10T00:46:55.989Z,16.58
2023-05-10T00:47:56.143Z,16.48
2023-05-10T00:48:56.092Z,16.56
2023-05-10T00:49:56.144Z,16.61
2023-05-10T00:50:56.158Z,16.60
2023-05-10T00:51:56.174Z,16.73
2023-05-10T00:52:56.224Z,16.78
2023-05-10T00:53:56.226Z,16.75
2023-05-10T00:54:56.276Z,16.79
2023-05-10T00:55:56.261Z,16.80
2023-05-10T00:56:56.810Z,16.78
2023-05-10T00:57:56.282Z,16.73
2023-05-10T00:58:56.282Z,16.67
2023-05-10T00:59:56.389Z,16.66
2023-05-10T01:00:56.465Z,16.70
2023-05-10T01:01:56.447Z,16.80
2023-05-10T01:02:56.580Z,16.73
2023-05-10T01:03:56.466Z,16.92
2023-05-10T01:04:56.586Z,17.05
2023-05-10T01:05:56.582Z,17.05
2023-05-10T01:06:56.664Z,17.10
2023-05-10T01:07:56.696Z,17.20
2023-05-10T01:08:56.714Z,17.33
2023-05-10T01:09:56.761Z,17.41
2023-05-10T01:10:56.690Z,17.47
2023-05-10T01:11:56.782Z,17.51
2023-05-10T01:12:56.920Z,17.50
2023-05-10T01:13:56.875Z,17.31
2023-05-10T01:14:56.956Z,17.24
2023-05-10T01:15:57.078Z,17.33
2023-05-10T01:16:57.070Z,17.31
2023-05-10T01:17:57.147Z,17.37
2023-05-10T01:18:57.166Z,17.47
2023-05-10T01:19:57.305Z,17.58
2023-05-10T01:20:57.362Z,17.61
2023-05-10T01:21:57.386Z,17.68
2023-05-10T01:22:57.443Z,17.72
2023-05-10T01:23:57.508Z,17.79
2023-05-10T01:24:57.551Z,17.84
2023-05-10T01:25:57.507Z,17.89
2023-05-10T01:26:57.546Z,17.96
2023-05-10T01:27:57.561Z,18.00
2023-05-10T01:28:57.550Z,18.02
2023-05-10T01:30:13.639Z,17.86
2023-05-10T01:30:58.589Z,17.66
2023-05-10T01:31:57.576Z,17.48
2023-05-10T01:32:57.596Z,17.28
2023-05-10T01:33:57.558Z,17.09
2023-05-10T01:34:57.545Z,17.10
2023-05-10T01:35:57.513Z,17.17
2023-05-10T01:36:57.493Z,17.10
2023-05-10T01:37:57.544Z,17.15
2023-05-10T01:38:57.536Z,17.31
2023-05-10T01:39:57.484Z,17.49
2023-05-10T01:40:57.502Z,17.59
2023-05-10T01:41:57.485Z,17.72
2023-05-10T01:42:57.509Z,17.78
2023-05-10T01:43:57.447Z,17.87
2023-05-10T01:44:57.468Z,17.93
2023-05-10T01:45:57.452Z,18.00
2023-05-10T01:46:57.670Z,18.04
2023-05-10T01:47:57.580Z,18.06
2023-05-10T01:48:57.461Z,18.06
2023-05-10T01:49:57.478Z,18.11
2023-05-10T01:50:57.428Z,18.10
2023-05-10T01:51:57.425Z,18.02
2023-05-10T01:52:57.411Z,17.92
2023-05-10T01:53:57.409Z,17.96
2023-05-10T01:54:57.401Z,18.05
2023-05-10T01:55:57.405Z,18.08
2023-05-10T01:56:57.350Z,18.10
2023-05-10T01:57:57.378Z,18.07
2023-05-10T01:58:57.350Z,18.01
2023-05-10T01:59:57.372Z,18.07
2023-05-10T02:00:57.454Z,18.11
2023-05-10T02:01:57.384Z,18.09
2023-05-10T02:02:57.538Z,18.10
2023-05-10T02:03:57.499Z,18.11
2023-05-10T02:04:57.472Z,18.11
2023-05-10T02:05:57.552Z,18.14
2023-05-10T02:06:57.519Z,18.18
2023-05-10T02:07:57.593Z,18.21
2023-05-10T02:08:57.589Z,18.20
2023-05-10T02:09:57.612Z,18.23
2023-05-10T02:10:57.648Z,18.24
2023-05-10T02:11:57.678Z,18.23
2023-05-10T02:12:57.733Z,18.26
2023-05-10T02:13:57.673Z,18.21
2023-05-10T02:14:57.707Z,17.93
2023-05-10T02:15:57.710Z,17.84
2023-05-10T02:16:57.757Z,17.88
2023-05-10T02:17:58.021Z,17.95
2023-05-10T02:18:57.779Z,17.86
2023-05-10T02:19:57.842Z,17.83
2023-05-10T02:20:57.859Z,17.89
2023-05-10T02:21:57.978Z,17.88
2023-05-10T02:22:57.973Z,17.92
2023-05-10T02:23:58.011Z,17.91
2023-05-10T02:24:58.060Z,17.93
2023-05-10T02:25:58.170Z,17.88
2023-05-10T02:26:58.208Z,17.60
2023-05-10T02:27:58.224Z,17.51
2023-05-10T02:28:58.255Z,17.55
2023-05-10T02:29:58.264Z,17.46
2023-05-10T02:30:58.319Z,17.46
2023-05-10T02:31:58.488Z,17.47
2023-05-10T02:32:58.475Z,17.43
2023-05-10T02:33:58.421Z,17.30
2023-05-10T02:34:58.502Z,16.98
2023-05-10T02:35:58.600Z,16.85
2023-05-10T02:36:58.587Z,16.92
2023-05-10T02:37:58.575Z,16.80
2023-05-10T02:38:58.573Z,16.92
2023-05-10T02:39:58.583Z,16.98
2023-05-10T02:40:58.634Z,16.99
2023-05-10T02:41:58.630Z,17.00
2023-05-10T02:42:58.638Z,17.12
2023-05-10T02:43:58.653Z,17.15
2023-05-10T02:44:58.665Z,17.16
2023-05-10T02:45:58.691Z,17.09
2023-05-10T02:46:58.666Z,17.07
2023-05-10T02:47:58.713Z,16.93
2023-05-10T02:48:58.676Z,16.86
2023-05-10T02:49:58.761Z,16.84
2023-05-10T02:50:58.725Z,16.95
2023-05-10T02:51:58.754Z,17.12
2023-05-10T02:52:58.782Z,17.13
2023-05-10T02:53:58.876Z,16.82
2023-05-10T02:54:58.961Z,16.71
2023-05-10T02:55:58.976Z,16.77
2023-05-10T02:56:59.005Z,16.80
2023-05-10T02:57:58.957Z,16.79
2023-05-10T02:58:59.058Z,16.88
2023-05-10T02:59:59.062Z,16.97
2023-05-10T03:00:59.087Z,17.04
2023-05-10T03:01:59.095Z,17.15
2023-05-10T03:02:59.194Z,17.22
2023-05-10T03:03:59.095Z,17.31
2023-05-10T03:04:59.426Z,17.37
2023-05-10T03:05:59.117Z,17.33
2023-05-10T03:06:59.115Z,17.37
2023-05-10T03:07:59.143Z,17.42
2023-05-10T03:08:59.232Z,17.41
2023-05-10T03:09:59.339Z,17.47
2023-05-10T03:10:59.353Z,17.43
2023-05-10T03:11:59.455Z,17.45
2023-05-10T03:12:59.468Z,17.40
2023-05-10T03:13:59.469Z,17.46
2023-05-10T03:14:59.555Z,17.49
2023-05-10T03:15:59.584Z,17.54
2023-05-10T03:16:59.550Z,17.59
2023-05-10T03:17:59.658Z,17.62
2023-05-10T03:18:59.608Z,17.66
2023-05-10T03:19:59.683Z,17.67
2023-05-10T03:20:59.725Z,17.43
2023-05-10T03:21:59.800Z,17.20
2023-05-10T03:22:59.846Z,17.06
2023-05-10T03:23:59.944Z,16.98
2023-05-10T03:24:59.956Z,17.09
2023-05-10T03:26:00.015Z,17.24
2023-05-10T03:27:00.029Z,17.39
2023-05-10T03:28:00.054Z,17.50
2023-05-10T03:29:00.124Z,17.53
2023-05-10T03:30:00.265Z,17.49
2023-05-10T03:31:00.227Z,17.42
2023-05-10T03:32:00.261Z,17.24
2023-05-10T03:33:00.352Z,16.98
2023-05-10T03:34:00.336Z,16.98
2023-05-10T03:35:00.337Z,16.93
2023-05-10T03:36:00.408Z,16.92
2023-05-10T03:37:00.394Z,16.95
2023-05-10T03:38:00.415Z,16.93
2023-05-10T03:39:00.415Z,16.88
2023-05-10T03:40:00.454Z,16.82
2023-05-10T03:41:00.439Z,16.85
2023-05-10T03:42:00.459Z,16.97
2023-05-10T03:43:00.461Z,17.11
2023-05-10T03:44:00.459Z,17.24
2023-05-10T03:45:00.519Z,17.25
2023-05-10T03:46:00.524Z,17.26
2023-05-10T03:47:00.727Z,17.29
2023-05-10T03:48:00.714Z,17.19
2023-05-10T03:49:00.806Z,16.98
2023-05-10T03:50:00.748Z,16.79
2023-05-10T03:51:00.804Z,16.59
2023-05-10T03:52:00.859Z,16.38
2023-05-10T03:53:00.871Z,16.22
2023-05-10T03:54:00.823Z,16.16
2023-05-10T03:55:00.884Z,16.18
2023-05-10T03:56:00.833Z,16.24
2023-05-10T03:57:00.855Z,16.30
2023-05-10T03:58:00.999Z,16.17
2023-05-10T03:59:00.909Z,16.18
2023-05-10T04:00:00.995Z,16.18
2023-05-10T04:01:00.989Z,16.12
2023-05-10T04:02:01.064Z,16.07
2023-05-10T04:03:01.087Z,16.14
2023-05-10T04:04:01.144Z,16.02
2023-05-10T04:05:01.157Z,16.00
2023-05-10T04:06:01.262Z,16.13
2023-05-10T04:07:01.237Z,16.27
2023-05-10T04:08:01.276Z,16.23
2023-05-10T04:09:01.290Z,16.24
2023-05-10T04:10:01.243Z,16.30
2023-05-10T04:11:01.292Z,16.44
2023-05-10T04:12:01.366Z,16.51
2023-05-10T04:13:01.489Z,16.61
2023-05-10T04:14:01.528Z,16.74
2023-05-10T04:15:01.587Z,16.84
2023-05-10T04:16:01.594Z,16.82
2023-05-10T04:17:02.250Z,16.80
2023-05-10T04:18:01.872Z,16.82
2023-05-10T04:19:01.836Z,16.75
2023-05-10T04:20:01.878Z,16.81
2023-05-10T04:21:01.933Z,16.95
2023-05-10T04:22:01.996Z,16.98
2023-05-10T04:23:02.054Z,16.91
2023-05-10T04:24:02.126Z,16.96
2023-05-10T04:25:02.125Z,16.97
2023-05-10T04:26:02.175Z,17.03
2023-05-10T04:27:02.232Z,16.85
2023-05-10T04:28:02.336Z,16.81
2023-05-10T04:29:02.351Z,16.83
2023-05-10T04:30:02.415Z,16.84
2023-05-10T04:31:02.522Z,16.79
2023-05-10T04:32:02.570Z,16.89
2023-05-10T04:33:02.760Z,16.89
2023-05-10T04:34:02.707Z,16.93
2023-05-10T04:35:02.796Z,17.02
2023-05-10T04:36:02.824Z,17.11
2023-05-10T04:37:02.910Z,17.13
2023-05-10T04:38:02.911Z,17.02
2023-05-10T04:39:02.961Z,17.07
2023-05-10T04:40:03.050Z,17.12
2023-05-10T04:41:03.086Z,16.99
2023-05-10T04:42:03.150Z,16.97
2023-05-10T04:43:03.198Z,16.95
2023-05-10T04:44:03.267Z,17.06
2023-05-10T04:45:03.265Z,17.18
2023-05-10T04:46:03.415Z,17.29
2023-05-10T04:47:03.327Z,17.33
2023-05-10T04:48:03.434Z,17.40
2023-05-10T04:49:03.481Z,17.41
2023-05-10T04:50:03.518Z,17.46
2023-05-10T04:51:03.632Z,17.50
2023-05-10T04:52:03.642Z,17.49
2023-05-10T04:53:03.739Z,17.42
2023-05-10T04:54:06.645Z,17.37
2023-05-10T04:55:03.748Z,17.31
2023-05-10T04:56:03.732Z,17.27
2023-05-10T04:57:03.749Z,17.25
2023-05-10T04:58:03.719Z,17.27
2023-05-10T04:59:03.712Z,17.30
2023-05-10T05:00:03.719Z,17.29
2023-05-10T05:02:31.442Z,17.05
2023-05-10T05:03:23.777Z,17.14
2023-05-10T05:04:23.719Z,17.10
2023-05-10T05:05:23.737Z,17.13
2023-05-10T05:06:23.728Z,17.14
2023-05-10T05:07:23.703Z,17.17
2023-05-10T05:08:23.640Z,17.11
2023-05-10T05:09:23.663Z,17.22
2023-05-10T05:10:23.667Z,17.15
2023-05-10T05:11:23.680Z,17.17
2023-05-10T05:12:23.672Z,17.26
2023-05-10T05:13:23.845Z,17.37
2023-05-10T05:14:23.608Z,17.09
2023-05-10T05:15:23.644Z,17.13
2023-05-10T05:16:23.683Z,17.13
2023-05-10T05:17:23.627Z,17.25
2023-05-10T05:18:23.727Z,17.21
2023-05-10T05:19:23.725Z,17.17
2023-05-10T05:20:23.626Z,17.20
2023-05-10T05:21:23.637Z,17.09
2023-05-10T05:22:23.632Z,17.08
2023-05-10T05:23:23.611Z,17.20
2023-05-10T05:24:23.665Z,17.29
2023-05-10T05:25:23.629Z,17.19
2023-05-10T05:26:23.603Z,17.14
2023-05-10T05:27:23.682Z,17.12
2023-05-10T05:28:23.687Z,17.10
2023-05-10T05:29:23.785Z,17.16
2023-05-10T05:30:23.808Z,17.16
2023-05-10T05:31:23.947Z,17.18
2023-05-10T05:32:23.967Z,17.15
2023-05-10T05:33:24.020Z,17.01
2023-05-10T05:34:24.462Z,17.01
2023-05-10T05:35:24.108Z,16.91
2023-05-10T05:36:24.142Z,16.83
2023-05-10T05:37:24.165Z,16.70
2023-05-10T05:38:24.122Z,16.64
2023-05-10T05:39:24.374Z,16.71
2023-05-10T05:40:24.272Z,16.81
2023-05-10T05:41:24.384Z,16.70
2023-05-10T05:42:24.396Z,16.48
2023-05-10T05:43:25.391Z,16.60
2023-05-10T05:44:24.907Z,16.51
2023-05-10T05:45:25.337Z,16.38
2023-05-10T05:47:44.147Z,16.31
2023-05-10T05:48:44.115Z,16.36
2023-05-10T05:49:43.899Z,16.54
2023-05-10T05:50:43.865Z,16.47
2023-05-10T05:51:43.892Z,16.29
2023-05-10T05:52:43.851Z,16.28
2023-05-10T05:53:44.077Z,16.27
2023-05-10T05:54:43.838Z,16.17
2023-05-10T05:55:43.850Z,16.24
2023-05-10T05:56:43.870Z,16.27
2023-05-10T05:57:43.807Z,16.31
2023-05-10T05:58:43.856Z,16.34
2023-05-10T05:59:44.105Z,16.32
2023-05-10T06:00:43.793Z,16.34
2023-05-10T06:01:43.835Z,16.43
2023-05-10T06:02:43.875Z,16.51
2023-05-10T06:03:43.877Z,16.45
2023-05-10T06:04:44.910Z,16.49
2023-05-10T06:05:43.786Z,16.63
2023-05-10T06:06:43.805Z,16.81
2023-05-10T06:07:43.739Z,16.90
2023-05-10T06:08:43.734Z,16.81
2023-05-10T06:09:43.767Z,16.87
2023-05-10T06:10:43.722Z,17.04
2023-05-10T06:11:43.708Z,17.18
2023-05-10T06:12:43.704Z,17.23
2023-05-10T06:13:43.699Z,17.23
2023-05-10T06:14:43.699Z,17.32
2023-05-10T06:15:43.793Z,17.33
2023-05-10T06:16:43.754Z,17.17
2023-05-10T06:17:43.769Z,17.00
2023-05-10T06:18:43.710Z,16.93
2023-05-10T06:19:43.702Z,16.89
2023-05-10T06:20:43.693Z,16.84
2023-05-10T06:21:43.613Z,16.92
2023-05-10T06:22:44.562Z,16.99
2023-05-10T06:23:44.058Z,16.90
2023-05-10T06:24:43.636Z,16.86
2023-05-10T06:25:43.634Z,16.95
2023-05-10T06:26:43.634Z,16.92
2023-05-10T06:27:44.344Z,16.99
2023-05-10T06:28:43.611Z,17.04
2023-05-10T06:29:44.135Z,17.14
2023-05-10T06:30:43.580Z,17.21
2023-05-10T06:31:43.639Z,17.16
2023-05-10T06:32:43.608Z,17.22
2023-05-10T06:33:43.637Z,17.23
2023-05-10T06:34:43.562Z,17.16
2023-05-10T06:35:43.674Z,17.01
2023-05-10T06:36:43.524Z,17.01
2023-05-10T06:37:43.550Z,17.10
2023-05-10T06:38:43.565Z,17.01
2023-05-10T06:39:43.551Z,16.83
2023-05-10T06:40:43.761Z,16.89
2023-05-10T06:41:43.686Z,17.07
2023-05-10T06:42:43.721Z,17.08
2023-05-10T06:43:43.787Z,17.02
2023-05-10T06:44:43.856Z,16.80
2023-05-10T06:45:43.892Z,16.69
2023-05-10T06:48:03.518Z,16.65
2023-05-10T06:49:04.452Z,16.80
2023-05-10T06:50:03.410Z,16.71
2023-05-10T06:51:03.414Z,16.76
2023-05-10T06:52:03.396Z,16.73
2023-05-10T06:53:03.402Z,16.47
2023-05-10T06:54:03.417Z,16.37
2023-05-10T06:55:03.429Z,16.58
2023-05-10T06:56:04.417Z,16.72
2023-05-10T06:57:04.165Z,16.79
2023-05-10T06:58:03.419Z,16.91
2023-05-10T06:59:03.454Z,16.99
2023-05-10T07:00:03.609Z,17.18
2023-05-10T07:01:03.610Z,17.27
2023-05-10T07:02:03.668Z,17.38
2023-05-10T07:03:03.720Z,17.41
2023-05-10T07:04:04.043Z,17.43
2023-05-10T07:05:03.833Z,17.43
2023-05-10T07:06:03.904Z,17.28
2023-05-10T07:07:03.936Z,17.16
2023-05-10T07:08:03.970Z,17.15
2023-05-10T07:09:04.027Z,17.16
2023-05-10T07:10:04.088Z,17.22
2023-05-10T07:11:04.114Z,17.35
2023-05-10T07:12:04.187Z,17.47
2023-05-10T07:13:04.196Z,17.44
2023-05-10T07:14:04.209Z,17.33
2023-05-10T07:15:04.253Z,17.42
2023-05-10T07:16:04.235Z,17.20
2023-05-10T07:17:04.243Z,17.33
2023-05-10T07:18:04.489Z,17.39
2023-05-10T07:19:04.302Z,17.46
2023-05-10T07:20:04.530Z,17.60
2023-05-10T07:21:04.382Z,17.67
2023-05-10T07:22:04.424Z,17.81
2023-05-10T07:23:04.472Z,17.92
2023-05-10T07:24:04.576Z,17.94
2023-05-10T07:25:04.802Z,18.01
2023-05-10T07:26:04.662Z,18.06
2023-05-10T07:27:04.704Z,17.97
2023-05-10T07:28:04.664Z,18.05
2023-05-10T07:29:04.686Z,18.11
2023-05-10T07:30:04.776Z,17.91
2023-05-10T07:31:04.797Z,17.89
2023-05-10T07:32:04.812Z,17.99
2023-05-10T07:33:04.772Z,18.07
2023-05-10T07:34:04.809Z,18.11
2023-05-10T07:35:04.825Z,17.90
2023-05-10T07:36:04.757Z,17.78
2023-05-10T07:37:04.781Z,17.42
2023-05-10T07:38:04.783Z,17.38
2023-05-10T07:39:04.793Z,17.49
2023-05-10T07:40:04.868Z,17.61
2023-05-10T07:41:04.838Z,17.81
2023-05-10T07:42:04.911Z,17.89
2023-05-10T07:43:04.965Z,17.97
2023-05-10T07:44:05.012Z,17.81
2023-05-10T07:45:05.085Z,17.83
2023-05-10T07:46:05.213Z,17.97
2023-05-10T07:47:05.169Z,17.87
2023-05-10T07:48:05.265Z,17.94
2023-05-10T07:49:05.269Z,18.08
2023-05-10T07:50:05.537Z,18.21
2023-05-10T07:51:05.348Z,18.33
2023-05-10T07:52:05.367Z,18.47
2023-05-10T07:53:05.449Z,18.57
2023-05-10T07:54:05.566Z,18.57
2023-05-10T07:55:05.571Z,18.34
2023-05-10T07:56:05.620Z,18.29
2023-05-10T07:57:05.629Z,18.33
2023-05-10T07:58:05.685Z,18.41
2023-05-10T07:59:05.635Z,18.41
2023-05-10T08:00:05.720Z,18.22
2023-05-10T08:01:05.757Z,18.07
2023-05-10T08:02:05.854Z,18.07
2023-05-10T08:03:05.909Z,18.22
2023-05-10T08:04:05.920Z,18.31
2023-05-10T08:05:05.855Z,18.42
2023-05-10T08:06:05.912Z,18.50
2023-05-10T08:07:05.975Z,18.59
2023-05-10T08:08:06.010Z,18.50
2023-05-10T08:09:06.043Z,18.53
2023-05-10T08:10:06.077Z,18.60
2023-05-10T08:11:06.074Z,18.58
2023-05-10T08:12:06.195Z,18.47
2023-05-10T08:13:06.253Z,18.24
2023-05-10T08:14:06.234Z,18.03
2023-05-10T08:15:06.260Z,18.10
2023-05-10T08:16:06.409Z,18.12
2023-05-10T08:17:06.941Z,18.16
2023-05-10T08:18:06.511Z,18.18
2023-05-10T08:19:06.513Z,17.92
2023-05-10T08:20:06.612Z,17.80
2023-05-10T08:21:06.526Z,17.94
2023-05-10T08:22:06.577Z,18.07
2023-05-10T08:23:06.583Z,18.11
2023-05-10T08:24:06.626Z,18.10
2023-05-10T08:25:07.420Z,18.17
2023-05-10T08:26:06.811Z,18.20
2023-05-10T08:27:06.822Z,18.12
2023-05-10T08:28:06.846Z,18.11
2023-05-10T08:29:06.845Z,18.09
2023-05-10T08:30:07.143Z,18.05
2023-05-10T08:31:07.017Z,17.99
2023-05-10T08:32:06.982Z,17.94
2023-05-10T08:33:07.105Z,17.95
2023-05-10T08:34:07.062Z,17.62
2023-05-10T08:35:07.154Z,17.53
2023-05-10T08:36:07.622Z,17.47
2023-05-10T08:37:07.185Z,17.24
2023-05-10T08:38:07.262Z,17.27
2023-05-10T08:39:13.532Z,17.27
2023-05-10T08:40:08.230Z,17.35
2023-05-10T08:41:07.306Z,17.37
2023-05-10T08:42:07.229Z,17.37
2023-05-10T08:43:07.384Z,17.35
2023-05-10T08:44:07.205Z,17.45
2023-05-10T08:45:07.530Z,17.51
2023-05-10T08:46:07.825Z,17.55
2023-05-10T08:47:07.327Z,17.61
2023-05-10T08:48:07.242Z,17.56
2023-05-10T08:49:07.190Z,17.46
2023-05-10T08:50:07.207Z,17.56
2023-05-10T08:51:07.607Z,17.62
2023-05-10T08:52:07.265Z,17.64
2023-05-10T08:53:07.292Z,17.68
2023-05-10T08:54:07.302Z,17.69
2023-05-10T08:55:07.344Z,17.77
2023-05-10T08:56:07.388Z,17.83
2023-05-10T08:57:07.404Z,17.85
2023-05-10T08:58:07.367Z,17.89
2023-05-10T08:59:07.372Z,17.93
2023-05-10T09:00:07.450Z,17.94
2023-05-10T09:01:07.844Z,17.70
2023-05-10T09:02:07.473Z,17.70
2023-05-10T09:03:07.571Z,17.57
2023-05-10T09:04:07.692Z,17.35
2023-05-10T09:05:07.686Z,17.38
2023-05-10T09:06:08.125Z,17.55
2023-05-10T09:07:07.656Z,17.72
2023-05-10T09:08:07.662Z,17.65
2023-05-10T09:09:07.669Z,17.75
2023-05-10T09:10:07.716Z,17.85
2023-05-10T09:11:08.544Z,17.87
2023-05-10T09:12:08.717Z,17.85
2023-05-10T09:13:07.723Z,17.75
2023-05-10T09:14:07.651Z,17.79
2023-05-10T09:15:07.719Z,17.90
2023-05-10T09:16:20.286Z,17.99
2023-05-10T09:17:08.754Z,18.10
2023-05-10T09:18:07.743Z,18.15
2023-05-10T09:19:07.752Z,18.18
2023-05-10T09:20:07.708Z,18.20
2023-05-10T09:21:07.692Z,18.24
2023-05-10T09:22:07.685Z,18.29
2023-05-10T09:23:07.736Z,18.38
2023-05-10T09:24:07.754Z,18.46
2023-05-10T09:25:07.814Z,18.51
2023-05-10T09:26:07.856Z,18.58
2023-05-10T09:27:07.935Z,18.62
2023-05-10T09:28:07.992Z,18.63
2023-05-10T09:29:08.090Z,18.53
2023-05-10T09:30:08.064Z,18.49
2023-05-10T09:31:08.168Z,18.34
2023-05-10T09:32:08.105Z,17.95
2023-05-10T09:33:08.137Z,18.01
2023-05-10T09:34:08.205Z,18.08
2023-05-10T09:35:08.126Z,18.12
2023-05-10T09:36:08.613Z,18.23
2023-05-10T09:37:08.133Z,18.27
2023-05-10T09:38:08.162Z,18.35
2023-05-10T09:39:08.168Z,18.31
2023-05-10T09:40:08.228Z,18.34
2023-05-10T09:41:08.190Z,18.40
2023-05-10T09:42:08.223Z,18.39
2023-05-10T09:43:08.410Z,18.37
2023-05-10T09:44:08.313Z,18.39
2023-05-10T09:45:08.363Z,18.46
2023-05-10T09:46:08.387Z,18.56
2023-05-10T09:47:08.421Z,18.63
2023-05-10T09:48:08.459Z,18.67
2023-05-10T09:49:08.492Z,18.74
2023-05-10T09:50:08.506Z,18.82
2023-05-10T09:51:08.647Z,18.86
2023-05-10T09:52:08.605Z,18.84
2023-05-10T09:53:08.578Z,18.90
2023-05-10T09:54:08.633Z,18.82
2023-05-10T09:55:08.654Z,18.77
2023-05-10T09:56:08.647Z,18.51
2023-05-10T09:57:08.671Z,18.45
2023-05-10T09:58:08.714Z,18.53
2023-05-10T09:59:09.461Z,18.67
2023-05-10T10:00:08.729Z,18.71
2023-05-10T10:01:08.839Z,18.69
2023-05-10T10:02:08.718Z,18.61
2023-05-10T10:03:08.822Z,18.51
2023-05-10T10:04:08.730Z,18.63
2023-05-10T10:05:08.762Z,18.69
2023-05-10T10:06:18.840Z,18.66
2023-05-10T10:07:09.706Z,18.64
2023-05-10T10:08:08.666Z,18.72
2023-05-10T10:09:08.706Z,18.72
2023-05-10T10:10:08.733Z,18.76
2023-05-10T10:11:09.099Z,18.83
2023-05-10T10:12:08.641Z,18.72
2023-05-10T10:13:08.620Z,18.67
2023-05-10T10:14:08.704Z,18.73
2023-05-10T10:15:08.656Z,18.84
2023-05-10T10:16:08.662Z,18.76
2023-05-10T10:17:09.090Z,18.66
2023-05-10T10:18:08.658Z,18.56
2023-05-10T10:19:08.614Z,18.49
2023-05-10T10:20:10.466Z,18.40
2023-05-10T10:21:08.572Z,18.50
2023-05-10T10:22:08.621Z,18.65
2023-05-10T10:23:08.556Z,18.73
2023-05-10T10:24:08.578Z,18.82
2023-05-10T10:25:08.563Z,18.92
2023-05-10T10:26:08.644Z,18.97
2023-05-10T10:27:08.568Z,19.02
2023-05-10T10:28:08.513Z,19.11
2023-05-10T10:29:08.585Z,19.21
2023-05-10T10:30:08.587Z,18.99
2023-05-10T10:31:08.584Z,18.69
2023-05-10T10:32:08.605Z,18.41
2023-05-10T10:33:20.183Z,18.38
2023-05-10T10:34:09.534Z,18.57
2023-05-10T10:35:08.530Z,18.79
2023-05-10T10:36:08.508Z,18.94
2023-05-10T10:37:08.628Z,19.05
2023-05-10T10:38:08.532Z,19.14
2023-05-10T10:39:08.546Z,19.17
2023-05-10T10:40:08.449Z,19.20
2023-05-10T10:41:08.446Z,19.19
2023-05-10T10:42:08.637Z,19.09
2023-05-10T10:43:08.467Z,18.99
2023-05-10T10:44:08.452Z,19.05
2023-05-10T10:45:08.481Z,19.15
2023-05-10T10:46:08.440Z,19.25
2023-05-10T10:47:08.691Z,19.18
2023-05-10T10:48:08.542Z,18.84
2023-05-10T10:49:08.476Z,18.76
2023-05-10T10:50:08.552Z,18.93
2023-05-10T10:51:10.087Z,19.12
2023-05-10T10:52:08.532Z,19.28
2023-05-10T10:53:08.550Z,19.19
2023-05-10T10:54:08.619Z,19.24
2023-05-10T10:55:08.629Z,19.34
2023-05-10T10:56:08.678Z,19.42
2023-05-10T10:57:08.716Z,19.54
2023-05-10T10:58:08.642Z,19.57
2023-05-10T10:59:08.688Z,19.59
2023-05-10T11:00:08.724Z,19.63
2023-05-10T11:01:08.756Z,19.70
2023-05-10T11:02:08.812Z,19.78
2023-05-10T11:03:08.916Z,19.78
2023-05-10T11:04:08.818Z,19.86
2023-05-10T11:05:08.822Z,19.90
2023-05-10T11:06:08.892Z,19.98
2023-05-10T11:07:09.155Z,19.89
2023-05-10T11:08:08.943Z,19.93
2023-05-10T11:09:08.985Z,19.98
2023-05-10T11:10:08.949Z,19.97
2023-05-10T11:11:09.000Z,19.90
2023-05-10T11:12:09.237Z,19.89
2023-05-10T11:13:09.101Z,19.71
2023-05-10T11:14:09.145Z,19.64
2023-05-10T11:15:10.448Z,19.54
2023-05-10T11:16:09.242Z,19.40
2023-05-10T11:17:09.298Z,19.36
2023-05-10T11:18:09.343Z,19.38
2023-05-10T11:19:09.462Z,19.20
2023-05-10T11:20:09.458Z,19.25
2023-05-10T11:21:09.490Z,19.48
2023-05-10T11:22:09.613Z,19.40
2023-05-10T11:23:09.612Z,19.55
2023-05-10T11:24:09.662Z,19.73
2023-05-10T11:25:09.679Z,19.84
2023-05-10T11:26:09.860Z,19.68
2023-05-10T11:27:10.378Z,19.79
2023-05-10T11:28:09.990Z,19.90
2023-05-10T11:29:10.197Z,19.92
2023-05-10T11:30:09.953Z,19.90
2023-05-10T11:31:09.924Z,19.88
2023-05-10T11:32:10.229Z,19.79
2023-05-10T11:33:10.002Z,19.73
2023-05-10T11:34:09.890Z,19.69
2023-05-10T11:35:09.901Z,19.67
2023-05-10T11:36:09.896Z,19.55
2023-05-10T11:37:09.868Z,19.55
2023-05-10T11:38:10.151Z,19.57
2023-05-10T11:39:09.889Z,19.47
2023-05-10T11:40:09.883Z,19.42
2023-05-10T11:41:10.030Z,19.51
2023-05-10T11:42:09.901Z,19.53
2023-05-10T11:43:10.123Z,19.46
2023-05-10T11:44:09.964Z,19.49
2023-05-10T11:45:10.034Z,19.52
2023-05-10T11:46:10.056Z,19.41
2023-05-10T11:47:10.117Z,19.32
2023-05-10T11:48:10.201Z,18.74
2023-05-10T11:49:10.149Z,18.35
2023-05-10T11:50:10.159Z,18.26
2023-05-10T11:51:10.186Z,18.40
2023-05-10T11:52:10.209Z,18.52
2023-05-10T11:53:10.228Z,18.62
2023-05-10T11:54:10.292Z,18.60
2023-05-10T11:55:10.349Z,18.67
2023-05-10T11:56:10.362Z,18.67
2023-05-10T11:57:10.408Z,18.70
2023-05-10T11:58:10.493Z,18.64
2023-05-10T11:59:10.499Z,18.60
2023-05-10T12:00:10.567Z,18.42
2023-05-10T12:01:10.606Z,18.14
2023-05-10T12:02:10.695Z,18.19
2023-05-10T12:03:11.221Z,18.06
2023-05-10T12:04:11.001Z,18.00
2023-05-10T12:05:10.900Z,18.10
2023-05-10T12:06:10.932Z,18.18
2023-05-10T12:07:10.927Z,18.23
2023-05-10T12:08:11.002Z,18.22
2023-05-10T12:09:11.057Z,18.14
2023-05-10T12:10:11.138Z,17.82
2023-05-10T12:11:11.116Z,17.52
2023-05-10T12:12:11.132Z,17.23
2023-05-10T12:13:11.158Z,17.22
2023-05-10T12:14:11.162Z,17.23
2023-05-10T12:15:11.173Z,17.24
2023-05-10T12:16:11.234Z,17.15
2023-05-10T12:17:11.157Z,17.10
2023-05-10T12:18:11.273Z,17.15
2023-05-10T12:19:11.389Z,17.40
2023-05-10T12:20:11.213Z,17.39
2023-05-10T12:21:11.275Z,17.45
2023-05-10T12:22:11.246Z,17.62
2023-05-10T12:23:11.240Z,17.55
2023-05-10T12:24:11.303Z,17.57
2023-05-10T12:25:11.268Z,17.70
2023-05-10T12:26:11.355Z,17.80
2023-05-10T12:27:11.433Z,17.78
2023-05-10T12:28:11.387Z,17.77
2023-05-10T12:29:11.395Z,17.85
2023-05-10T12:30:11.472Z,17.73
2023-05-10T12:31:11.515Z,17.76
2023-05-10T12:32:11.553Z,17.73
2023-05-10T12:33:11.679Z,17.79
2023-05-10T12:34:11.613Z,17.88
2023-05-10T12:35:11.637Z,17.94
2023-05-10T12:36:11.724Z,17.99
2023-05-10T12:37:11.692Z,18.00
2023-05-10T12:38:11.753Z,18.08
2023-05-10T12:39:11.762Z,18.09
2023-05-10T12:40:11.796Z,18.14
2023-05-10T12:41:11.916Z,18.19
2023-05-10T12:42:11.892Z,18.28
2023-05-10T12:43:11.957Z,18.35
2023-05-10T12:44:11.958Z,18.23
2023-05-10T12:45:12.020Z,17.99
2023-05-10T12:46:12.128Z,17.72
2023-05-10T12:47:12.126Z,17.76
2023-05-10T12:48:12.672Z,17.93
2023-05-10T12:49:12.201Z,17.86
2023-05-10T12:50:12.365Z,17.70
2023-05-10T12:51:12.369Z,17.68
2023-05-10T12:52:12.424Z,17.77
2023-05-10T12:53:12.521Z,17.76
2023-05-10T12:54:12.528Z,17.75
2023-05-10T12:55:12.551Z,17.57
2023-05-10T12:56:12.591Z,17.56
2023-05-10T12:57:12.641Z,17.58